Resultados 1 al 7 de 7

Tema: [AIR6.5e]Air importa apenas el primer vuelo desde un .gpx

  1. #1
    Fecha de ingreso
    26 Mar, 05
    Mensajes
    3

    Predeterminado [AIR6.5e]Air importa apenas el primer vuelo desde un .gpx

    El CompeGPS Air importa apenas el primer vuelo desde un archivo .gpx que incluye más de un vuelo.

    Uso un logger con Bluetooth (Wintec WBT-201), el cual puede grabar hasta 130 000 puntos. Automaticamente cree un nuevo track para cada nuevo viaje o vuelo. Pues entonces el archivo incluye algo así:
    <gpx>
    <trk><name>Track 1</name>
    <trkseg>
    <trkpt> con los dados del primer punto </trkpt>
    ... y siguen todos los puntos del track
    </trkseg>
    </trk>
    <trk><name>Track 2</name>
    <trkseg>
    <trkpt> con los dados del primer punto </trkpt>
    ... y siguen todos los puntos del track
    </trkseg>
    </trk>
    </gpx>

    Cuando abro el archivo con un formato similar, CompeGPS me muestra el Track 1, y no el Track 2. Sería conveniente que CompeGPS abriera todos los vuelos dentro de un archivo .gpx

    A continuación incluyo un archivo entero que contiene dos viajes distintos para que lo puedan testear con una versión corregida de CompeGPS.

    gracias
    Stewart

    -----
    <?xml version="1.0"?>
    <gpx
    version = "1.0"
    creator = "G-Tool - http://www.wintec.com.tw"
    xmlnssi = "http://www.w3.org/2001/XMLSchema-instance"
    xmlns = "http://www.topografix.com/GPX/1/0"
    xsi:schemaLocation = "http://www.topografix.com/GPX/1/0 http://www.topografix.com/GPX/1/0/gpx.xsd">
    <trk>
    <name>Track 001</name>
    <trkseg>

    <trkpt lat="51.041973" lon="-114.074143">
    <ele>1060.000000</ele>
    <time>2007-06-18T19:00:25Z</time>
    <speed>14.938060</speed>
    <type>Trackpoint</type>
    </trkpt>

    <trkpt lat="51.042117" lon="-114.074035">
    <ele>1060.000000</ele>
    <time>2007-06-18T19:00:30Z</time>
    <speed>12.703566</speed>
    <type>Trackpoint</type>
    </trkpt>

    <trkpt lat="51.042265" lon="-114.074035">
    <ele>1060.000000</ele>
    <time>2007-06-18T19:00:35Z</time>
    <speed>11.872281</speed>
    <type>Trackpoint</type>
    </trkpt>

    <trkpt lat="51.042370" lon="-114.074015">
    <ele>1060.000000</ele>
    <time>2007-06-18T19:00:40Z</time>
    <speed>8.466040</speed>
    <type>Trackpoint</type>
    </trkpt>

    <trkpt lat="51.042373" lon="-114.074007">
    <ele>1060.000000</ele>
    <time>2007-06-18T19:00:45Z</time>
    <speed>0.497596</speed>
    <type>Trackpoint</type>
    </trkpt>

    <trkpt lat="51.042390" lon="-114.073932">
    <ele>1060.000000</ele>
    <time>2007-06-18T19:00:50Z</time>
    <speed>4.002424</speed>
    <type>Trackpoint</type>
    </trkpt>

    <trkpt lat="51.042518" lon="-114.073933">
    <ele>1060.000000</ele>
    <time>2007-06-18T19:00:55Z</time>
    <speed>10.279595</speed>
    <type>Trackpoint</type>
    </trkpt>

    <trkpt lat="51.042550" lon="-114.073828">
    <ele>1060.000000</ele>
    <time>2007-06-18T19:01:00Z</time>
    <speed>5.862991</speed>
    <type>Trackpoint</type>
    </trkpt>

    <trkpt lat="51.042600" lon="-114.073842">
    <ele>1060.000000</ele>
    <time>2007-06-18T19:01:05Z</time>
    <speed>4.050574</speed>
    <type>Trackpoint</type>
    </trkpt>

    <trkpt lat="51.042622" lon="-114.073842">
    <ele>1060.000000</ele>
    <time>2007-06-18T19:01:30Z</time>
    <speed>1.737223</speed>
    <type>Trackpoint</type>
    </trkpt>

    <trkpt lat="51.042702" lon="-114.073855">
    <ele>1060.000000</ele>
    <time>2007-06-18T19:01:35Z</time>
    <speed>6.439438</speed>
    <type>Trackpoint</type>
    </trkpt>

    <trkpt lat="51.042847" lon="-114.073902">
    <ele>1060.000000</ele>
    <time>2007-06-18T19:01:40Z</time>
    <speed>11.843718</speed>
    <type>Trackpoint</type>
    </trkpt>

    <trkpt lat="51.042922" lon="-114.073987">
    <ele>1060.000000</ele>
    <time>2007-06-18T19:01:45Z</time>
    <speed>7.372631</speed>
    <type>Trackpoint</type>
    </trkpt>

    <trkpt lat="51.043053" lon="-114.074032">
    <ele>1060.000000</ele>
    <time>2007-06-18T19:01:50Z</time>
    <speed>10.783952</speed>
    <type>Trackpoint</type>
    </trkpt>

    <trkpt lat="51.043160" lon="-114.074062">
    <ele>1060.000000</ele>
    <time>2007-06-18T19:01:55Z</time>
    <speed>8.666462</speed>
    <type>Trackpoint</type>
    </trkpt>

    <trkpt lat="51.043290" lon="-114.074038">
    <ele>1060.000000</ele>
    <time>2007-06-18T19:02:00Z</time>
    <speed>10.481219</speed>
    <type>Trackpoint</type>
    </trkpt>

    <trkpt lat="51.043433" lon="-114.074058">
    <ele>1060.000000</ele>
    <time>2007-06-18T19:02:05Z</time>
    <speed>11.516134</speed>
    <type>Trackpoint</type>
    </trkpt>

    <trkpt lat="51.043503" lon="-114.073937">
    <ele>1060.000000</ele>
    <time>2007-06-18T19:02:10Z</time>
    <speed>8.302219</speed>
    <type>Trackpoint</type>
    </trkpt>

    <trkpt lat="51.043535" lon="-114.073933">
    <ele>1060.000000</ele>
    <time>2007-06-18T19:02:15Z</time>
    <speed>2.535412</speed>
    <type>Trackpoint</type>
    </trkpt>

    <trkpt lat="51.043577" lon="-114.073918">
    <ele>1060.000000</ele>
    <time>2007-06-18T19:02:50Z</time>
    <speed>3.404495</speed>
    <type>Trackpoint</type>
    </trkpt>

    <trkpt lat="51.043740" lon="-114.073883">
    <ele>1060.000000</ele>
    <time>2007-06-18T19:02:55Z</time>
    <speed>13.191397</speed>
    <type>Trackpoint</type>
    </trkpt>

    <trkpt lat="51.043912" lon="-114.073872">
    <ele>1060.000000</ele>
    <time>2007-06-18T19:03:00Z</time>
    <speed>13.758254</speed>
    <type>Trackpoint</type>
    </trkpt>

    <trkpt lat="51.044040" lon="-114.073883">
    <ele>1060.000000</ele>
    <time>2007-06-18T19:03:05Z</time>
    <speed>10.288227</speed>
    <type>Trackpoint</type>
    </trkpt>

    <trkpt lat="51.044202" lon="-114.073895">
    <ele>1060.000000</ele>
    <time>2007-06-18T19:03:10Z</time>
    <speed>12.958254</speed>
    <type>Trackpoint</type>
    </trkpt>

    </trkseg>
    </trk>
    <trk>
    <name>Track 002</name>
    <trkseg>

    <trkpt lat="51.081492" lon="-114.164260">
    <ele>1110.000000</ele>
    <time>2007-06-21T04:46:37Z</time>
    <speed>0.595863</speed>
    <type>Trackpoint</type>
    </trkpt>

    <trkpt lat="51.081513" lon="-114.164385">
    <ele>1110.000000</ele>
    <time>2007-06-21T04:46:42Z</time>
    <speed>6.522336</speed>
    <type>Trackpoint</type>
    </trkpt>

    <trkpt lat="51.081527" lon="-114.164552">
    <ele>1110.000000</ele>
    <time>2007-06-21T04:46:47Z</time>
    <speed>8.451128</speed>
    <type>Trackpoint</type>
    </trkpt>

    <trkpt lat="51.081432" lon="-114.164678">
    <ele>1110.000000</ele>
    <time>2007-06-21T04:46:52Z</time>
    <speed>9.921840</speed>
    <type>Trackpoint</type>
    </trkpt>

    <trkpt lat="51.081350" lon="-114.164723">
    <ele>1110.000000</ele>
    <time>2007-06-21T04:46:57Z</time>
    <speed>6.920935</speed>
    <type>Trackpoint</type>
    </trkpt>

    <trkpt lat="51.081273" lon="-114.164785">
    <ele>1108.000000</ele>
    <time>2007-06-21T04:47:02Z</time>
    <speed>6.870463</speed>
    <type>Trackpoint</type>
    </trkpt>

    <trkpt lat="51.081140" lon="-114.164950">
    <ele>1104.000000</ele>
    <time>2007-06-21T04:47:07Z</time>
    <speed>13.524519</speed>
    <type>Trackpoint</type>
    </trkpt>

    <trkpt lat="51.080962" lon="-114.165162">
    <ele>1099.000000</ele>
    <time>2007-06-21T04:47:12Z</time>
    <speed>17.807536</speed>
    <type>Trackpoint</type>
    </trkpt>

    <trkpt lat="51.080813" lon="-114.165325">
    <ele>1095.000000</ele>
    <time>2007-06-21T04:47:17Z</time>
    <speed>14.436284</speed>
    <type>Trackpoint</type>
    </trkpt>

    <trkpt lat="51.080687" lon="-114.165435">
    <ele>1092.000000</ele>
    <time>2007-06-21T04:47:22Z</time>
    <speed>11.556226</speed>
    <type>Trackpoint</type>
    </trkpt>

    <trkpt lat="51.080603" lon="-114.165485">
    <ele>1092.000000</ele>
    <time>2007-06-21T04:47:27Z</time>
    <speed>7.125152</speed>
    <type>Trackpoint</type>
    </trkpt>

    <trkpt lat="51.080510" lon="-114.165558">
    <ele>1093.000000</ele>
    <time>2007-06-21T04:47:32Z</time>
    <speed>8.338995</speed>
    <type>Trackpoint</type>
    </trkpt>

    <trkpt lat="51.080452" lon="-114.165637">
    <ele>1092.000000</ele>
    <time>2007-06-21T04:47:37Z</time>
    <speed>6.106540</speed>
    <type>Trackpoint</type>
    </trkpt>

    <trkpt lat="51.080483" lon="-114.165772">
    <ele>1091.000000</ele>
    <time>2007-06-21T04:47:42Z</time>
    <speed>7.248337</speed>
    <type>Trackpoint</type>
    </trkpt>

    <trkpt lat="51.080510" lon="-114.165808">
    <ele>1090.000000</ele>
    <time>2007-06-21T04:47:47Z</time>
    <speed>2.818148</speed>
    <type>Trackpoint</type>
    </trkpt>

    <trkpt lat="51.080513" lon="-114.165805">
    <ele>1090.000000</ele>
    <time>2007-06-21T04:47:52Z</time>
    <speed>0.320591</speed>
    <type>Trackpoint</type>
    </trkpt>

    <trkpt lat="51.080520" lon="-114.165797">
    <ele>1090.000000</ele>
    <time>2007-06-21T04:47:57Z</time>
    <speed>0.673171</speed>
    <type>Trackpoint</type>
    </trkpt>

    <trkpt lat="51.080522" lon="-114.165783">
    <ele>1090.000000</ele>
    <time>2007-06-21T04:48:02Z</time>
    <speed>0.683501</speed>
    <type>Trackpoint</type>
    </trkpt>

    </trkseg>
    </trk>
    </gpx>

  2. #2
    Fecha de ingreso
    01 Mar, 05
    Ubicación
    En el medio del páramo
    Mensajes
    8,595

    Predeterminado

    ¿Qué versión tienes?, ¿cómo abres el GPX?. TE lo digo por que lo acabo de comprobar (con la 6.5) y funciona sin problemas.

    Para abrirlo lo he arrastrado a la ventana de Compe. Si lo quieres hacer por menús tienes que irte a la sección de "conjuntos", ya que si lo haces por "tracks", ya le estas indicando que quieres abrir un fichero de 1 track. Seguro que este es tu fallo...

    Muevo este hilo a su foro correspondiente...

    Saludos...
    Todo el día de arriba para abajo...

  3. #3
    Fecha de ingreso
    26 Mar, 05
    Mensajes
    3

    Predeterminado

    Está cierto que puedo abrir los dos vuelos en un solo archivo .gpx arrastrandolo al CompeGPS. Gracias por ese consejo.

    La verdad que no veo cómo hacerlo atravez de los menús. Esto usando la versión 6.4 en inglés, y no veo nada de ese índole ni en File ni en Flights.

    saludos
    S

  4. #4
    Fecha de ingreso
    19 Jan, 06
    Ubicación
    Soplan vientos del Noroeste
    Mensajes
    9,071

    Predeterminado

    Cita Iniciado por midtoad
    Esto usando la versión 6.4 en inglés, y no veo nada de ese índole ni en File ni en Flights.
    Te han dicho que utilizes la 6.5, la 6.4 está obsoleta.
    Un saludo
    EA1EDC
    Javier

  5. #5
    Fecha de ingreso
    01 Mar, 05
    Ubicación
    En el medio del páramo
    Mensajes
    8,595

    Predeterminado

    Cita Iniciado por midtoad
    La verdad que no veo cómo hacerlo atravez de los menús. Esto usando la versión 6.4 en inglés, y no veo nada de ese índole ni en File ni en Flights.
    Tienes que hacerlo a traves del menú "Conjuntos", que en inglés es "Profiles", ya que los GPX se pueden comportar como tales, ya que pueden incluir muchos tracks y waypoints en el mismo archivo...

    Salud.
    Todo el día de arriba para abajo...

  6. #6
    Fecha de ingreso
    26 Mar, 05
    Mensajes
    3

    Predeterminado

    CpA, ahí sí! Pero poco obvio (bueno, para eso está el foro).

    En la guía de ayuda, no habla de "Profiles", sino de "Groups". Y no mencione la posibilidad de importar más de un track a partir de un archivo .gpx.

  7. #7
    Fecha de ingreso
    01 Mar, 05
    Ubicación
    En el medio del páramo
    Mensajes
    8,595

    Predeterminado

    Cita Iniciado por midtoad
    CpA, ahí sí! Pero poco obvio (bueno, para eso está el foro).
    Ahí le has dado .

    Me alegro que lo hayas pillado...

    Saludotesss..
    Todo el día de arriba para abajo...

Permisos de publicación

  • No puedes crear nuevos temas
  • No puedes responder temas
  • No puedes subir archivos adjuntos
  • No puedes editar tus mensajes
  •  


About us

    CompeGPS Team SL All rights reserved © 2012

Follow us on

Twitter Facebook youtube Google Plus Flickr